Time;durP1;ratioP1;P1;durP2;ratioP2;P2;SDS_P1;SDS_P2;PMS_P1;PMS_P2;Temp;Humidity;BMP_temperature;BMP_pressure;BME280_temperature;BME280_humidity;BME280_pressure;Samples;Min_cycle;Max_cycle;Signal;HPM_P1;HPM_P2
2022/11/16 00:00:33;;;;;;;16.30;14.80;;;;;;;;;;5031470;28;20213;-56
2022/11/16 00:03:02;;;;;;;15.40;13.90;;;;;;;;;;5035405;28;20187;-55
2022/11/16 00:05:27;;;;;;;16.23;14.63;;;;;;;;;;5034238;28;20182;-55
2022/11/16 00:07:53;;;;;;;16.23;14.80;;;;;;;;;;5037030;28;20621;-55
2022/11/16 00:10:18;;;;;;;16.37;14.83;;;;;;;;;;5033353;28;20212;-55
2022/11/16 00:12:43;;;;;;;14.63;13.33;;;;;;;;;;5034458;28;20201;-55
2022/11/16 00:15:08;;;;;;;15.37;14.03;;;;;;;;;;5030400;28;20272;-55
2022/11/16 00:17:33;;;;;;;15.40;14.00;;;;;;;;;;5032555;28;20654;-55
2022/11/16 00:19:59;;;;;;;15.80;14.30;;;;;;;;;;5033269;28;20266;-56
2022/11/16 00:22:24;;;;;;;16.47;14.87;;;;;;;;;;5039802;28;20198;-56
2022/11/16 00:24:49;;;;;;;15.37;14.00;;;;;;;;;;5030206;28;20191;-55
2022/11/16 00:27:14;;;;;;;17.27;15.87;;;;;;;;;;5039359;28;20555;-55
2022/11/16 00:29:39;;;;;;;15.03;13.63;;;;;;;;;;5038533;28;20231;-55
2022/11/16 00:32:05;;;;;;;15.90;14.30;;;;;;;;;;5034009;28;20612;-55
2022/11/16 00:34:30;;;;;;;15.40;14.00;;;;;;;;;;5038320;28;20185;-55
2022/11/16 00:36:55;;;;;;;14.60;13.30;;;;;;;;;;5043284;28;20171;-55
2022/11/16 00:39:20;;;;;;;14.40;13.20;;;;;;;;;;5036911;28;20189;-55
2022/11/16 00:41:46;;;;;;;14.93;13.63;;;;;;;;;;5033553;28;20202;-54
2022/11/16 00:44:11;;;;;;;14.40;13.10;;;;;;;;;;5044248;28;20187;-55
2022/11/16 00:46:36;;;;;;;14.00;12.77;;;;;;;;;;5045746;28;20187;-56
2022/11/16 00:49:01;;;;;;;13.43;12.10;;;;;;;;;;5032925;28;20196;-56
2022/11/16 00:51:26;;;;;;;13.87;12.57;;;;;;;;;;5037264;28;20673;-55
2022/11/16 00:53:52;;;;;;;13.53;12.23;;;;;;;;;;5036527;28;20228;-55
2022/11/16 00:56:17;;;;;;;13.57;12.37;;;;;;;;;;5034825;28;20182;-55
2022/11/16 00:58:42;;;;;;;13.80;12.60;;;;;;;;;;5041140;28;20191;-55
2022/11/16 01:01:08;;;;;;;13.77;12.50;;;;;;;;;;5039211;28;20611;-55
2022/11/16 01:03:33;;;;;;;13.50;12.40;;;;;;;;;;5037219;28;20520;-55
2022/11/16 01:06:00;;;;;;;13.33;12.13;;;;;;;;;;5037714;28;20214;-55
2022/11/16 01:08:25;;;;;;;15.37;14.07;;;;;;;;;;5041477;28;20179;-55
2022/11/16 01:10:50;;;;;;;14.13;12.83;;;;;;;;;;5034312;28;21088;-55
2022/11/16 01:13:15;;;;;;;13.70;12.43;;;;;;;;;;5040292;28;20297;-55
2022/11/16 01:15:45;;;;;;;14.80;13.50;;;;;;;;;;5040022;28;20182;-56
2022/11/16 01:18:11;;;;;;;13.40;12.20;;;;;;;;;;5043001;28;20648;-55
2022/11/16 01:20:39;;;;;;;15.13;13.90;;;;;;;;;;5046862;28;20674;-55
2022/11/16 01:23:04;;;;;;;14.40;13.10;;;;;;;;;;5045170;28;20660;-56
2022/11/16 01:25:29;;;;;;;14.60;13.27;;;;;;;;;;5036798;28;20617;-55
2022/11/16 01:27:54;;;;;;;12.90;11.60;;;;;;;;;;5033381;28;20208;-55
2022/11/16 01:30:19;;;;;;;13.68;12.20;;;;;;;;;;5032355;28;20244;-55
2022/11/16 01:32:44;;;;;;;14.90;13.60;;;;;;;;;;5041661;28;20215;-55
2022/11/16 01:35:13;;;;;;;13.80;12.40;;;;;;;;;;5040930;28;20192;-55
2022/11/16 01:37:39;;;;;;;14.27;12.97;;;;;;;;;;5035076;28;20911;-55
2022/11/16 01:40:04;;;;;;;15.73;14.40;;;;;;;;;;5040747;28;20642;-55
2022/11/16 01:42:29;;;;;;;13.80;12.50;;;;;;;;;;5034322;28;20182;-55
2022/11/16 01:44:57;;;;;;;13.60;12.30;;;;;;;;;;5038507;28;20279;-55
2022/11/16 01:47:22;;;;;;;15.07;13.77;;;;;;;;;;5040150;28;20275;-55
2022/11/16 01:49:49;;;;;;;14.97;13.67;;;;;;;;;;5039419;28;21286;-55
2022/11/16 01:52:23;;;;;;;15.50;14.10;;;;;;;;;;5036878;28;20192;-54
2022/11/16 01:54:50;;;;;;;13.93;12.53;;;;;;;;;;5032625;28;20742;-55
2022/11/16 01:57:19;;;;;;;15.47;14.07;;;;;;;;;;5046611;28;20642;-54
2022/11/16 01:59:45;;;;;;;15.57;14.27;;;;;;;;;;5032324;28;20614;-55
2022/11/16 02:02:11;;;;;;;16.30;14.90;;;;;;;;;;5032066;28;20647;-55
2022/11/16 02:04:36;;;;;;;14.03;12.73;;;;;;;;;;5032438;28;20644;-55
2022/11/16 02:07:07;;;;;;;14.00;12.60;;;;;;;;;;5044313;28;20183;-54
2022/11/16 02:12:35;;;;;;;15.27;13.87;;;;;;;;;;5031261;28;20636;-54
2022/11/16 02:15:03;;;;;;;14.40;13.07;;;;;;;;;;5045590;28;20626;-54
2022/11/16 02:17:39;;;;;;;14.23;12.83;;;;;;;;;;5050376;28;20595;-55
2022/11/16 02:20:19;;;;;;;15.40;14.10;;;;;;;;;;5050252;28;21009;-54
2022/11/16 02:22:59;;;;;;;14.73;13.30;;;;;;;;;;5040445;28;20693;-55
2022/11/16 02:25:43;;;;;;;14.57;13.07;;;;;;;;;;5031815;28;20599;-54
2022/11/16 02:28:14;;;;;;;14.00;12.70;;;;;;;;;;5033263;28;21141;-55
2022/11/16 02:30:43;;;;;;;15.90;14.47;;;;;;;;;;5043831;28;20687;-54
2022/11/16 02:33:10;;;;;;;14.83;13.53;;;;;;;;;;5040858;28;20968;-55
2022/11/16 02:35:37;;;;;;;16.40;15.10;;;;;;;;;;5039526;28;20602;-55
2022/11/16 02:38:08;;;;;;;15.37;13.97;;;;;;;;;;5035078;28;21026;-55
2022/11/16 02:40:34;;;;;;;14.53;13.10;;;;;;;;;;5041296;28;20798;-55
2022/11/16 02:43:03;;;;;;;15.17;13.67;;;;;;;;;;5032297;28;20584;-54
2022/11/16 02:45:31;;;;;;;16.00;14.60;;;;;;;;;;5047199;28;20719;-55
2022/11/16 02:47:58;;;;;;;14.83;13.47;;;;;;;;;;5033223;28;20610;-54
2022/11/16 02:50:24;;;;;;;17.57;16.10;;;;;;;;;;5032258;28;20641;-55
2022/11/16 02:52:49;;;;;;;15.17;13.87;;;;;;;;;;5051386;28;20688;-55
2022/11/16 02:55:14;;;;;;;15.73;14.40;;;;;;;;;;5044832;28;20207;-54
2022/11/16 02:57:42;;;;;;;14.40;13.00;;;;;;;;;;5047425;28;20591;-54
2022/11/16 03:00:10;;;;;;;14.67;13.47;;;;;;;;;;5046269;28;20180;-55
2022/11/16 03:02:43;;;;;;;14.53;13.43;;;;;;;;;;5050390;28;20593;-55
2022/11/16 03:05:10;;;;;;;15.87;14.57;;;;;;;;;;5042426;28;20632;-55
2022/11/16 03:07:42;;;;;;;13.47;12.37;;;;;;;;;;5031468;28;20593;-56
2022/11/16 03:10:08;;;;;;;13.70;12.37;;;;;;;;;;5034627;28;20602;-55
2022/11/16 03:12:34;;;;;;;14.73;13.60;;;;;;;;;;5042500;28;20729;-55
2022/11/16 03:15:08;;;;;;;14.03;12.80;;;;;;;;;;5046174;28;20589;-56
2022/11/16 03:17:41;;;;;;;14.67;13.37;;;;;;;;;;5031336;28;20175;-56
2022/11/16 03:20:14;;;;;;;13.80;12.77;;;;;;;;;;5033846;28;20604;-55
2022/11/16 03:22:48;;;;;;;14.50;13.20;;;;;;;;;;5030008;28;20670;-54
2022/11/16 03:25:15;;;;;;;14.70;13.40;;;;;;;;;;5038124;28;20601;-55
2022/11/16 03:27:47;;;;;;;13.43;12.33;;;;;;;;;;5031066;28;21174;-54
2022/11/16 03:30:19;;;;;;;14.77;13.57;;;;;;;;;;5032865;28;20608;-55
2022/11/16 03:33:06;;;;;;;14.13;12.93;;;;;;;;;;5030083;28;20714;-56
2022/11/16 03:35:34;;;;;;;13.10;12.10;;;;;;;;;;5030386;28;20952;-55
2022/11/16 03:38:00;;;;;;;13.87;12.80;;;;;;;;;;5047239;28;20696;-54
2022/11/16 03:40:27;;;;;;;12.70;11.60;;;;;;;;;;5040011;28;20648;-54
2022/11/16 03:42:53;;;;;;;13.37;12.37;;;;;;;;;;5039765;28;20840;-55
2022/11/16 03:45:19;;;;;;;13.23;12.20;;;;;;;;;;5032714;28;20696;-55
2022/11/16 03:47:44;;;;;;;14.80;13.50;;;;;;;;;;5030760;28;20629;-55
2022/11/16 03:50:09;;;;;;;13.47;12.37;;;;;;;;;;5046924;28;21162;-55
2022/11/16 03:52:35;;;;;;;13.30;12.10;;;;;;;;;;5034140;28;20179;-55
2022/11/16 03:55:00;;;;;;;12.40;11.33;;;;;;;;;;5034595;28;20312;-55
2022/11/16 03:57:25;;;;;;;13.50;12.30;;;;;;;;;;5039848;28;20249;-55
2022/11/16 03:59:50;;;;;;;13.10;12.10;;;;;;;;;;5039510;28;20259;-55
2022/11/16 04:02:15;;;;;;;12.90;11.90;;;;;;;;;;5044440;28;20284;-55
2022/11/16 04:29:16;;;;;;;12.97;11.87;;;;;;;;;;5042509;28;20579;-55
2022/11/16 04:39:56;;;;;;;11.63;10.70;;;;;;;;;;5039063;28;20658;-55
2022/11/16 04:42:21;;;;;;;10.90;9.90;;;;;;;;;;5041438;28;20651;-55
2022/11/16 04:47:30;;;;;;;10.83;10.03;;;;;;;;;;5038101;28;20174;-55
2022/11/16 04:49:55;;;;;;;10.97;10.03;;;;;;;;;;5035743;28;20605;-56
2022/11/16 04:52:20;;;;;;;11.83;10.90;;;;;;;;;;5032743;28;20187;-56
2022/11/16 04:54:45;;;;;;;11.67;10.67;;;;;;;;;;5052852;28;20230;-55
2022/11/16 04:57:11;;;;;;;12.00;10.90;;;;;;;;;;5053681;28;20174;-56
2022/11/16 04:59:36;;;;;;;11.27;10.37;;;;;;;;;;5039400;28;20229;-55
2022/11/16 05:02:07;;;;;;;11.30;10.40;;;;;;;;;;5039809;28;20233;-55
2022/11/16 05:04:33;;;;;;;11.37;10.47;;;;;;;;;;5033964;28;20551;-56
2022/11/16 05:06:58;;;;;;;11.67;10.77;;;;;;;;;;5052055;28;20691;-56
2022/11/16 05:09:23;;;;;;;11.60;10.70;;;;;;;;;;5038677;28;20258;-56
2022/11/16 05:11:48;;;;;;;11.40;10.50;;;;;;;;;;5033618;28;20195;-55
2022/11/16 05:14:13;;;;;;;10.30;9.60;;;;;;;;;;5033336;28;20188;-55
2022/11/16 05:16:38;;;;;;;11.38;10.43;;;;;;;;;;5052829;28;20175;-55
2022/11/16 05:21:48;;;;;;;11.90;10.90;;;;;;;;;;5036620;28;20627;-56
2022/11/16 05:26:56;;;;;;;10.40;9.60;;;;;;;;;;5034255;28;20203;-56
2022/11/16 05:29:22;;;;;;;11.60;10.60;;;;;;;;;;5042071;28;21211;-56
2022/11/16 05:31:47;;;;;;;11.37;10.47;;;;;;;;;;5033863;28;20185;-56
2022/11/16 05:34:12;;;;;;;10.73;9.83;;;;;;;;;;5033115;28;20241;-55
2022/11/16 05:36:37;;;;;;;12.33;10.53;;;;;;;;;;5035758;28;20241;-55
2022/11/16 05:39:03;;;;;;;10.03;9.23;;;;;;;;;;5036914;28;20182;-55
2022/11/16 05:41:29;;;;;;;11.60;10.50;;;;;;;;;;5042493;28;20201;-56
2022/11/16 05:43:54;;;;;;;12.27;11.27;;;;;;;;;;5034505;28;20597;-56
2022/11/16 05:46:20;;;;;;;11.30;10.50;;;;;;;;;;5044274;28;20639;-56
2022/11/16 05:48:45;;;;;;;11.00;10.10;;;;;;;;;;5042555;28;20184;-56
2022/11/16 05:51:10;;;;;;;12.53;11.53;;;;;;;;;;5050219;28;20211;-56
2022/11/16 05:53:36;;;;;;;12.17;11.17;;;;;;;;;;5045099;28;20244;-55
2022/11/16 05:56:01;;;;;;;11.40;10.50;;;;;;;;;;5033573;28;20194;-55
2022/11/16 05:58:26;;;;;;;12.13;11.03;;;;;;;;;;5032384;28;20253;-56
2022/11/16 06:00:51;;;;;;;11.63;10.63;;;;;;;;;;5032554;28;20203;-54
2022/11/16 06:03:16;;;;;;;11.60;10.70;;;;;;;;;;5040336;28;20275;-55
2022/11/16 06:05:42;;;;;;;11.53;10.60;;;;;;;;;;5052521;28;20170;-54
2022/11/16 06:08:07;;;;;;;10.60;9.80;;;;;;;;;;5047967;28;20169;-55
2022/11/16 06:10:32;;;;;;;12.47;11.47;;;;;;;;;;5032340;28;20179;-56
2022/11/16 06:12:57;;;;;;;10.97;10.03;;;;;;;;;;5031988;28;20203;-56
2022/11/16 06:15:23;;;;;;;10.73;9.87;;;;;;;;;;5045015;28;20218;-55
2022/11/16 06:17:48;;;;;;;11.40;10.50;;;;;;;;;;5052164;28;20191;-56
2022/11/16 06:20:13;;;;;;;12.23;11.33;;;;;;;;;;5041751;28;20212;-55
2022/11/16 06:22:38;;;;;;;11.10;10.20;;;;;;;;;;5041859;28;20185;-56
2022/11/16 06:25:05;;;;;;;11.50;10.60;;;;;;;;;;5046235;28;20545;-55
2022/11/16 06:27:30;;;;;;;12.97;11.87;;;;;;;;;;5040483;28;20178;-57
2022/11/16 06:29:55;;;;;;;11.97;11.00;;;;;;;;;;5036507;28;20618;-55
2022/11/16 06:32:21;;;;;;;12.67;11.67;;;;;;;;;;5035377;28;20273;-56
2022/11/16 06:34:46;;;;;;;13.10;11.80;;;;;;;;;;5042079;28;20180;-56
2022/11/16 06:37:11;;;;;;;13.47;12.37;;;;;;;;;;5045408;28;20180;-56
2022/11/16 06:39:36;;;;;;;12.70;11.70;;;;;;;;;;5047930;28;20258;-55
2022/11/16 06:42:01;;;;;;;12.53;11.50;;;;;;;;;;5036947;28;20211;-55
2022/11/16 06:44:26;;;;;;;12.33;11.43;;;;;;;;;;5040486;28;20177;-55
2022/11/16 06:46:52;;;;;;;12.90;11.67;;;;;;;;;;5048446;28;20239;-54
2022/11/16 06:49:17;;;;;;;12.33;11.33;;;;;;;;;;5042965;28;20179;-56
2022/11/16 06:51:42;;;;;;;12.70;11.60;;;;;;;;;;5059336;28;20605;-56
2022/11/16 06:54:07;;;;;;;12.77;11.77;;;;;;;;;;5060023;28;20221;-56
2022/11/16 06:56:33;;;;;;;11.93;11.03;;;;;;;;;;5028663;28;20637;-56
2022/11/16 06:58:58;;;;;;;11.50;10.60;;;;;;;;;;5027970;28;20202;-58
2022/11/16 07:01:23;;;;;;;13.27;12.07;;;;;;;;;;5034589;28;20659;-57
2022/11/16 07:03:48;;;;;;;12.33;11.33;;;;;;;;;;5028926;28;20186;-57
2022/11/16 07:06:14;;;;;;;13.30;12.20;;;;;;;;;;5045262;28;20180;-56
2022/11/16 07:08:39;;;;;;;12.00;11.00;;;;;;;;;;5042938;28;20172;-56
2022/11/16 07:11:05;;;;;;;11.50;10.60;;;;;;;;;;5030924;28;20185;-56
2022/11/16 07:13:33;;;;;;;11.47;10.57;;;;;;;;;;5041586;28;20204;-57
2022/11/16 07:16:05;;;;;;;12.93;11.87;;;;;;;;;;5033317;28;20591;-57
2022/11/16 07:18:34;;;;;;;12.00;11.10;;;;;;;;;;5046300;28;21256;-57
2022/11/16 07:21:04;;;;;;;11.43;10.63;;;;;;;;;;5041338;28;20706;-56
2022/11/16 07:23:29;;;;;;;11.70;10.80;;;;;;;;;;5032395;28;21189;-57
2022/11/16 07:25:58;;;;;;;12.40;11.30;;;;;;;;;;5029341;28;20713;-57
2022/11/16 07:28:23;;;;;;;11.20;10.40;;;;;;;;;;5042697;28;20183;-56
2022/11/16 07:30:48;;;;;;;12.43;11.43;;;;;;;;;;5034903;28;20614;-57
2022/11/16 07:33:13;;;;;;;13.10;12.00;;;;;;;;;;5032204;28;20201;-57
2022/11/16 07:35:38;;;;;;;10.93;10.13;;;;;;;;;;5032784;28;20266;-56
2022/11/16 07:38:04;;;;;;;12.27;11.27;;;;;;;;;;5050882;28;20172;-56
2022/11/16 07:40:29;;;;;;;12.32;11.35;;;;;;;;;;5034722;28;20543;-57
2022/11/16 07:42:56;;;;;;;12.60;11.52;;;;;;;;;;5030579;28;20165;-57
2022/11/16 07:45:21;;;;;;;12.90;11.90;;;;;;;;;;5030130;28;20528;-58
2022/11/16 07:47:51;;;;;;;11.90;11.00;;;;;;;;;;5034451;28;20624;-56
2022/11/16 07:50:16;;;;;;;12.00;11.10;;;;;;;;;;5034167;28;20174;-56
2022/11/16 07:52:45;;;;;;;11.77;10.87;;;;;;;;;;5049825;28;20627;-56
2022/11/16 07:55:10;;;;;;;12.80;11.70;;;;;;;;;;5042248;28;20208;-56
2022/11/16 07:57:35;;;;;;;12.23;11.27;;;;;;;;;;5048947;28;20973;-57
2022/11/16 08:00:00;;;;;;;13.00;11.90;;;;;;;;;;5035936;28;20191;-56
2022/11/16 08:02:25;;;;;;;12.70;11.70;;;;;;;;;;5038272;28;20298;-57
2022/11/16 08:04:51;;;;;;;15.23;14.10;;;;;;;;;;5029519;28;20582;-56
2022/11/16 08:07:16;;;;;;;13.10;12.05;;;;;;;;;;5033748;28;20214;-57
2022/11/16 08:09:41;;;;;;;12.43;11.23;;;;;;;;;;5039941;28;20182;-64
2022/11/16 08:12:07;;;;;;;12.37;11.23;;;;;;;;;;5036110;28;20197;-64
2022/11/16 08:14:32;;;;;;;11.27;10.37;;;;;;;;;;5059213;28;20183;-63
2022/11/16 08:16:57;;;;;;;12.37;11.37;;;;;;;;;;5037047;28;20233;-65
2022/11/16 08:19:22;;;;;;;11.27;10.30;;;;;;;;;;5043876;28;20175;-63
2022/11/16 08:21:47;;;;;;;12.13;11.13;;;;;;;;;;5031629;28;20208;-65
2022/11/16 08:24:12;;;;;;;10.60;9.70;;;;;;;;;;5030457;28;20646;-65
2022/11/16 08:26:38;;;;;;;11.93;10.83;;;;;;;;;;5037872;28;20190;-63
2022/11/16 08:29:03;;;;;;;12.63;11.47;;;;;;;;;;5050387;28;20390;-64
2022/11/16 08:31:28;;;;;;;13.17;11.97;;;;;;;;;;5039270;28;20199;-64
2022/11/16 08:33:53;;;;;;;12.23;11.13;;;;;;;;;;5031614;28;20576;-65
2022/11/16 08:36:19;;;;;;;11.67;10.67;;;;;;;;;;5036100;28;20175;-64
2022/11/16 08:38:48;;;;;;;11.83;10.80;;;;;;;;;;5037413;28;20177;-65
2022/11/16 08:41:13;;;;;;;12.23;11.30;;;;;;;;;;5037822;28;20206;-65
2022/11/16 08:43:39;;;;;;;12.33;11.33;;;;;;;;;;5036853;28;20694;-64
2022/11/16 08:46:05;;;;;;;12.13;11.03;;;;;;;;;;5048030;28;20182;-65
2022/11/16 08:48:30;;;;;;;11.43;10.53;;;;;;;;;;5040569;28;20647;-64
2022/11/16 08:51:00;;;;;;;12.32;11.13;;;;;;;;;;5041701;28;20618;-57
2022/11/16 08:53:25;;;;;;;11.67;10.73;;;;;;;;;;5028404;28;20224;-57
2022/11/16 08:55:50;;;;;;;12.83;11.73;;;;;;;;;;5031943;28;21030;-56
2022/11/16 08:58:16;;;;;;;11.82;10.82;;;;;;;;;;5032271;28;20285;-56
2022/11/16 09:00:41;;;;;;;10.70;9.80;;;;;;;;;;5035093;28;20207;-56
2022/11/16 09:03:06;;;;;;;11.53;10.53;;;;;;;;;;5043995;28;20258;-56
2022/11/16 09:05:31;;;;;;;11.68;10.68;;;;;;;;;;5031101;28;20181;-55
2022/11/16 09:07:56;;;;;;;11.97;10.90;;;;;;;;;;5042095;28;20198;-56
2022/11/16 09:10:24;;;;;;;11.10;10.25;;;;;;;;;;5041548;28;20185;-55
2022/11/16 09:12:49;;;;;;;12.80;11.63;;;;;;;;;;5038667;28;20323;-56
2022/11/16 09:15:15;;;;;;;11.48;10.57;;;;;;;;;;5030699;28;20612;-55
2022/11/16 09:17:40;;;;;;;13.10;11.90;;;;;;;;;;5032727;28;20165;-55
2022/11/16 09:20:05;;;;;;;12.43;11.30;;;;;;;;;;5036565;28;20643;-55
2022/11/16 09:22:31;;;;;;;11.00;10.17;;;;;;;;;;5033237;28;20226;-55
2022/11/16 09:24:56;;;;;;;11.73;10.68;;;;;;;;;;5035269;28;20262;-56
2022/11/16 09:27:21;;;;;;;12.10;11.10;;;;;;;;;;5033455;28;20175;-56
2022/11/16 09:29:46;;;;;;;11.17;10.27;;;;;;;;;;5035941;28;20185;-55
2022/11/16 09:32:11;;;;;;;12.13;11.13;;;;;;;;;;5053125;28;20173;-55
2022/11/16 09:34:36;;;;;;;11.27;10.40;;;;;;;;;;5051349;28;20674;-54
2022/11/16 09:37:02;;;;;;;11.00;10.13;;;;;;;;;;5053394;28;20261;-54
2022/11/16 09:39:30;;;;;;;11.47;10.57;;;;;;;;;;5046388;28;20218;-54
2022/11/16 09:42:14;;;;;;;11.40;10.50;;;;;;;;;;5033812;28;20204;-55
2022/11/16 09:44:57;;;;;;;12.00;11.00;;;;;;;;;;5032985;28;20612;-54
2022/11/16 09:47:23;;;;;;;10.40;9.60;;;;;;;;;;5033124;28;21131;-54
2022/11/16 09:49:58;;;;;;;11.07;10.17;;;;;;;;;;5048808;28;20591;-54
2022/11/16 09:52:24;;;;;;;11.80;10.90;;;;;;;;;;5054319;28;20608;-55
2022/11/16 09:54:50;;;;;;;11.00;10.10;;;;;;;;;;5053687;28;21009;-54
2022/11/16 09:57:17;;;;;;;9.53;8.83;;;;;;;;;;5064007;28;20173;-55
2022/11/16 09:59:44;;;;;;;11.10;10.30;;;;;;;;;;5064149;28;20633;-55
2022/11/16 10:02:12;;;;;;;10.90;10.10;;;;;;;;;;5050863;28;20706;-55
2022/11/16 10:04:42;;;;;;;11.33;10.37;;;;;;;;;;5047295;28;20624;-56
2022/11/16 10:07:13;;;;;;;9.10;8.40;;;;;;;;;;5048259;28;20632;-59
2022/11/16 10:09:38;;;;;;;9.40;8.70;;;;;;;;;;5050483;28;20663;-58
2022/11/16 10:12:07;;;;;;;9.20;8.50;;;;;;;;;;5049376;28;21229;-58
2022/11/16 10:14:32;;;;;;;9.47;8.70;;;;;;;;;;5032362;28;20817;-57
2022/11/16 10:17:05;;;;;;;9.17;8.47;;;;;;;;;;5034198;28;20704;-57
2022/11/16 10:19:30;;;;;;;9.37;8.67;;;;;;;;;;5031936;28;20228;-58
2022/11/16 10:22:14;;;;;;;8.87;8.27;;;;;;;;;;5034168;28;20663;-58
2022/11/16 10:24:43;;;;;;;9.03;8.33;;;;;;;;;;5050449;28;20169;-56
2022/11/16 10:27:14;;;;;;;9.50;8.80;;;;;;;;;;5039113;28;20705;-56
2022/11/16 10:29:39;;;;;;;9.07;8.30;;;;;;;;;;5031152;28;20591;-56
2022/11/16 10:32:14;;;;;;;9.05;8.35;;;;;;;;;;5030370;28;20573;-56
2022/11/16 10:34:39;;;;;;;8.40;7.80;;;;;;;;;;5046824;28;20189;-55
2022/11/16 10:37:07;;;;;;;8.65;7.95;;;;;;;;;;5052147;28;20676;-56
2022/11/16 10:39:33;;;;;;;8.30;7.80;;;;;;;;;;5052031;28;20547;-57
2022/11/16 10:42:00;;;;;;;9.10;8.40;;;;;;;;;;5051495;28;21213;-57
2022/11/16 10:44:35;;;;;;;8.60;7.90;;;;;;;;;;5045069;28;20707;-56
2022/11/16 10:47:04;;;;;;;7.80;7.20;;;;;;;;;;5047679;28;20627;-56
2022/11/16 10:49:45;;;;;;;8.93;8.00;;;;;;;;;;5035072;28;20614;-55
2022/11/16 10:52:10;;;;;;;7.43;6.93;;;;;;;;;;5051499;28;20992;-56
2022/11/16 10:54:35;;;;;;;7.27;6.77;;;;;;;;;;5040126;28;20639;-56
2022/11/16 10:57:05;;;;;;;7.30;6.80;;;;;;;;;;5050673;28;20586;-56
2022/11/16 10:59:37;;;;;;;6.80;6.20;;;;;;;;;;5051242;28;20203;-56
2022/11/16 11:02:22;;;;;;;6.40;6.00;;;;;;;;;;5050808;28;21002;-57
2022/11/16 11:05:14;;;;;;;6.20;5.60;;;;;;;;;;5039786;28;20621;-55
2022/11/16 11:07:42;;;;;;;6.90;6.40;;;;;;;;;;5031327;28;20628;-56
2022/11/16 11:10:23;;;;;;;6.53;6.03;;;;;;;;;;5032136;28;20965;-56
2022/11/16 11:13:07;;;;;;;5.90;5.60;;;;;;;;;;5043479;28;20751;-56
2022/11/16 11:15:32;;;;;;;5.57;5.27;;;;;;;;;;5044072;28;20639;-57
2022/11/16 11:18:16;;;;;;;5.73;5.33;;;;;;;;;;5044404;28;20598;-56
2022/11/16 11:20:43;;;;;;;5.57;5.23;;;;;;;;;;5031710;28;20214;-56
2022/11/16 11:23:18;;;;;;;6.10;5.70;;;;;;;;;;5041835;28;20603;-56
2022/11/16 11:25:51;;;;;;;5.43;4.93;;;;;;;;;;5041645;28;20609;-56
2022/11/16 11:28:20;;;;;;;4.83;4.47;;;;;;;;;;5050864;28;20581;-56
2022/11/16 11:30:57;;;;;;;4.90;4.43;;;;;;;;;;5050466;28;20646;-56
2022/11/16 11:33:23;;;;;;;5.30;4.90;;;;;;;;;;5040734;28;20613;-57
2022/11/16 11:36:07;;;;;;;5.33;5.00;;;;;;;;;;5040296;28;20643;-56
2022/11/16 11:38:33;;;;;;;5.27;4.87;;;;;;;;;;5036528;28;20960;-56
2022/11/16 11:40:59;;;;;;;4.90;4.60;;;;;;;;;;5035710;28;20713;-56
2022/11/16 11:43:25;;;;;;;5.90;5.50;;;;;;;;;;5040502;28;20613;-56
2022/11/16 11:45:54;;;;;;;4.90;4.60;;;;;;;;;;5030806;28;20702;-56
2022/11/16 11:48:37;;;;;;;5.30;5.00;;;;;;;;;;5033327;28;20264;-56
2022/11/16 11:51:12;;;;;;;5.13;4.77;;;;;;;;;;5031276;28;20610;-56
2022/11/16 11:53:37;;;;;;;5.20;4.90;;;;;;;;;;5037318;28;20652;-56
2022/11/16 11:56:03;;;;;;;5.30;5.00;;;;;;;;;;5038372;28;20620;-57
2022/11/16 11:58:29;;;;;;;5.10;4.80;;;;;;;;;;5032906;28;20183;-56
2022/11/16 12:01:01;;;;;;;5.70;5.30;;;;;;;;;;5039274;28;20276;-56
2022/11/16 12:03:29;;;;;;;6.40;6.00;;;;;;;;;;5030077;28;20616;-56
2022/11/16 12:06:18;;;;;;;5.90;5.50;;;;;;;;;;5032203;28;20602;-56
2022/11/16 12:08:59;;;;;;;6.00;5.60;;;;;;;;;;5034427;28;20634;-57
2022/11/16 12:11:24;;;;;;;5.73;5.33;;;;;;;;;;5036885;28;20676;-56
2022/11/16 12:14:08;;;;;;;6.10;5.60;;;;;;;;;;5031394;28;20606;-56
2022/11/16 12:16:42;;;;;;;6.20;5.80;;;;;;;;;;5040363;28;20731;-56
2022/11/16 12:19:07;;;;;;;6.67;6.17;;;;;;;;;;5031503;28;21032;-56
2022/11/16 12:21:44;;;;;;;6.55;6.15;;;;;;;;;;5037456;28;20653;-56
2022/11/16 12:24:28;;;;;;;7.43;6.93;;;;;;;;;;5038530;28;20185;-57
2022/11/16 12:26:56;;;;;;;7.03;6.53;;;;;;;;;;5036837;28;20616;-56
2022/11/16 12:29:25;;;;;;;7.80;7.20;;;;;;;;;;5035634;28;20656;-56
2022/11/16 12:31:59;;;;;;;7.13;6.63;;;;;;;;;;5046774;28;21445;-56
2022/11/16 12:34:24;;;;;;;7.00;6.50;;;;;;;;;;5033981;28;20606;-56
2022/11/16 12:37:03;;;;;;;6.70;6.30;;;;;;;;;;5054451;28;20602;-57
2022/11/16 12:39:31;;;;;;;6.70;6.30;;;;;;;;;;5026982;28;20208;-57
2022/11/16 12:41:56;;;;;;;7.60;7.00;;;;;;;;;;5036546;28;20656;-57
2022/11/16 12:44:33;;;;;;;6.43;6.03;;;;;;;;;;5035480;28;20626;-56
2022/11/16 12:47:15;;;;;;;6.40;6.00;;;;;;;;;;5026019;28;20187;-56
2022/11/16 12:49:40;;;;;;;6.20;5.80;;;;;;;;;;5042012;28;20717;-56
2022/11/16 12:52:24;;;;;;;6.05;5.65;;;;;;;;;;5046078;28;20699;-58
2022/11/16 12:55:04;;;;;;;7.33;6.73;;;;;;;;;;5031487;28;20248;-57
2022/11/16 12:57:32;;;;;;;6.53;6.10;;;;;;;;;;5035107;28;21158;-57
2022/11/16 13:00:06;;;;;;;6.90;6.40;;;;;;;;;;5040172;28;20602;-56
2022/11/16 13:02:41;;;;;;;6.27;5.80;;;;;;;;;;5039601;28;21233;-57
2022/11/16 13:05:12;;;;;;;6.60;6.10;;;;;;;;;;5047551;28;21244;-56
2022/11/16 13:07:41;;;;;;;6.40;5.97;;;;;;;;;;5030386;28;20588;-57
2022/11/16 13:10:12;;;;;;;6.20;5.80;;;;;;;;;;5039009;28;20628;-57
2022/11/16 13:12:38;;;;;;;7.10;6.60;;;;;;;;;;5040275;28;21181;-57
2022/11/16 13:15:03;;;;;;;6.40;5.90;;;;;;;;;;5031368;28;20601;-57
2022/11/16 13:17:33;;;;;;;6.43;6.03;;;;;;;;;;5035599;28;20240;-57
2022/11/16 13:20:13;;;;;;;6.03;5.63;;;;;;;;;;5042207;28;20184;-57
2022/11/16 13:22:45;;;;;;;5.93;5.53;;;;;;;;;;5033016;28;20702;-56
2022/11/16 13:25:17;;;;;;;6.97;6.47;;;;;;;;;;5032753;28;20703;-57
2022/11/16 13:27:46;;;;;;;6.40;6.00;;;;;;;;;;5049403;28;21159;-56
2022/11/16 13:30:23;;;;;;;6.87;6.37;;;;;;;;;;5032750;28;20694;-57
2022/11/16 13:33:07;;;;;;;6.20;5.80;;;;;;;;;;5048653;28;20645;-58
2022/11/16 13:35:36;;;;;;;7.80;7.10;;;;;;;;;;5027956;28;20722;-57
2022/11/16 13:38:01;;;;;;;6.70;6.30;;;;;;;;;;5049072;28;20610;-57
2022/11/16 13:40:27;;;;;;;7.63;7.07;;;;;;;;;;5038238;28;20598;-57
2022/11/16 13:43:16;;;;;;;7.20;6.60;;;;;;;;;;5030743;28;20206;-56
2022/11/16 13:45:50;;;;;;;8.10;7.50;;;;;;;;;;5032074;28;21201;-56
2022/11/16 13:48:15;;;;;;;8.77;8.17;;;;;;;;;;5032279;28;20609;-56
2022/11/16 13:50:45;;;;;;;9.77;9.07;;;;;;;;;;5038378;28;21031;-56
2022/11/16 13:53:12;;;;;;;9.53;8.90;;;;;;;;;;5032323;28;20233;-56
2022/11/16 13:55:39;;;;;;;10.00;9.37;;;;;;;;;;5046190;28;20603;-56
2022/11/16 13:58:06;;;;;;;10.30;9.50;;;;;;;;;;5032953;28;20622;-57
2022/11/16 14:00:33;;;;;;;10.07;9.37;;;;;;;;;;5038181;28;20641;-56
2022/11/16 14:03:16;;;;;;;9.93;9.23;;;;;;;;;;5037163;28;20612;-58
2022/11/16 14:05:41;;;;;;;11.40;10.60;;;;;;;;;;5034802;28;20603;-56
2022/11/16 14:08:19;;;;;;;10.87;10.07;;;;;;;;;;5040203;28;21229;-56
2022/11/16 14:10:50;;;;;;;11.10;10.20;;;;;;;;;;5030094;28;20810;-56
2022/11/16 14:13:34;;;;;;;11.10;10.30;;;;;;;;;;5034946;28;20637;-56
2022/11/16 14:16:15;;;;;;;11.50;10.60;;;;;;;;;;5035800;28;21217;-57
2022/11/16 14:18:41;;;;;;;11.37;10.47;;;;;;;;;;5033027;28;20984;-56
2022/11/16 14:21:09;;;;;;;11.47;10.67;;;;;;;;;;5034226;28;20640;-57
2022/11/16 14:23:37;;;;;;;11.30;10.40;;;;;;;;;;5030661;28;20204;-57
2022/11/16 14:26:11;;;;;;;12.73;11.73;;;;;;;;;;5028257;28;20594;-56
2022/11/16 14:28:51;;;;;;;11.63;10.73;;;;;;;;;;5049111;28;20578;-58
2022/11/16 14:31:21;;;;;;;13.33;12.23;;;;;;;;;;5043884;28;20736;-58
2022/11/16 14:33:57;;;;;;;12.37;11.47;;;;;;;;;;5035935;28;20623;-62
2022/11/16 14:36:40;;;;;;;14.10;13.00;;;;;;;;;;5040728;28;20613;-60
2022/11/16 14:39:15;;;;;;;14.80;13.70;;;;;;;;;;5038610;28;20982;-60
2022/11/16 14:41:45;;;;;;;15.17;13.93;;;;;;;;;;5033163;28;20660;-58
2022/11/16 14:44:10;;;;;;;15.23;14.03;;;;;;;;;;5037969;28;20639;-58
2022/11/16 14:46:36;;;;;;;16.17;14.87;;;;;;;;;;5036962;28;20640;-59
2022/11/16 14:49:02;;;;;;;17.20;15.90;;;;;;;;;;5044955;28;20890;-59
2022/11/16 14:51:43;;;;;;;16.43;15.13;;;;;;;;;;5036405;28;20782;-59
2022/11/16 14:54:14;;;;;;;15.97;14.77;;;;;;;;;;5032945;28;20301;-58
2022/11/16 14:56:54;;;;;;;17.47;16.10;;;;;;;;;;5040454;28;20589;-59
2022/11/16 14:59:19;;;;;;;17.10;15.60;;;;;;;;;;5046201;28;20691;-60
2022/11/16 15:01:44;;;;;;;17.37;15.87;;;;;;;;;;5032427;28;20741;-58
2022/11/16 15:04:10;;;;;;;16.57;15.27;;;;;;;;;;5048793;28;20188;-56
2022/11/16 15:06:39;;;;;;;17.00;15.57;;;;;;;;;;5036947;28;20710;-57
2022/11/16 15:09:04;;;;;;;17.40;15.90;;;;;;;;;;5032797;28;20607;-57
2022/11/16 15:14:24;;;;;;;18.03;16.47;;;;;;;;;;5043300;28;20350;-58
2022/11/16 15:16:50;;;;;;;17.87;16.47;;;;;;;;;;5033476;28;20607;-58